Airfield :
LOGIN :

Register | Disclaimer

   EN    FR    IT 

 










Legend :    VFR   Marginal VFR   IFR   Intensive IFR   Very Intensive IFR
Visi :
Ceiling :
>= 8 km
>= 3000ft
5 to 8 km
1000 to 3000 ft
1500m to 5 km
500 to 1000 ft
800 to 1500m
200 to 500 ft
< 800m
< 200 ft
Symbols :   Thunderstorms  Fog  Heavy snow  Heavy precipitations  Wind > 20 kt
SIGMETs :     Misc.  Thunderstorms  Icing  Turbulence  Mountain Waves  Volcanic Ashes






- Airport Elevation : 266 ft
- IATA code : NCL


EGNT - Newcastle

CURRENT METAR :
  • 240520Z 01011KT 340V060 9999 BKN045 05/M01 Q1019

EXPIRED METARs :
  • 240450Z 36008KT 9999 BKN045 05/M01 Q1019
  • 240420Z 36009KT 9999 BKN048 05/M01 Q1019
  • 240350Z 35009KT 9999 BKN049 05/M01 Q1019
  • 240320Z 36007KT 9999 BKN049 04/00 Q1020
  • 240250Z 36008KT 330V030 9999 BKN049 04/00 Q1020
  • 240220Z 34006KT 9999 BKN044 04/00 Q1020
  • 240150Z 36013KT 9999 BKN044 04/00 Q1020
  • 240120Z 36011KT 9999 BKN048 05/M00 Q1021
  • 240050Z 01008KT 330V030 9999 BKN042 05/M00 Q1021

TAF TAF EGNT
Valid from the 24 at 06:00 until the 25 at 06:00 UTC


240459Z 2406/2506 35010KT 9999 SCT035
PROB30
TEMPO 2406/2412 8000 -SHRA
BECMG 2415/2418 VRB04KT
PROB30
TEMPO 2503/2506 6000 SHRA BKN014
ATIS : +44 191 214 3400



MET'MAP, your aeronautical weather chart ! - Copyright ORBIFLY December 2007 - Disclaimer

ORBIFLY MET'MAP TEAM :

Programming & Development : Alexandra Zaïnal
Original concept : Baudouin d'Aumeries
Technical & hardware support : Manuel Goepfert
Assistance : Marc-Olivier Méhu




SOURCES & CREDITS :

   NOAA